Time,TemperatureF,DewpointF,PressureIn,WindDirection,WindDirectionDegrees,WindSpeedMPH,WindSpeedGustMPH,Humidity,HourlyPrecipIn,Conditions,Clouds,dailyrainin,SolarRadiationWatts/m^2,SoftwareType,DateUTC
2013-07-02 00:00:00,65.0,63.0,-100.00,NNW,339,0.0,-999.0,91,-99.99,,,-99.99,0.000000,,2013-07-02 05:00:00,
2013-07-02 00:53:00,65.0,63.0,-100.00,NNW,339,0.0,-999.0,91,-99.99,,,-99.99,0.000000,,2013-07-02 05:53:00,
2013-07-02 03:00:00,61.0,60.0,-100.00,WSW,253,0.0,-999.0,95,-99.99,,,-99.99,0.000000,,2013-07-02 08:00:00,
2013-07-02 03:53:00,61.0,60.0,-100.00,WSW,253,0.0,-999.0,95,-99.99,,,-99.99,0.000000,,2013-07-02 08:53:00,
2013-07-02 04:00:00,62.0,61.0,-100.00,WSW,240,1.0,-999.0,95,-99.99,,,-99.99,0.000000,,2013-07-02 09:00:00,
2013-07-02 05:00:00,61.0,59.0,-100.00,SW,219,1.0,-999.0,94,-99.99,,,-99.99,0.000000,,2013-07-02 10:00:00,
2013-07-02 06:00:00,61.0,59.0,-100.00,ESE,123,0.0,-999.0,95,-99.99,,,-99.99,1.060000,,2013-07-02 11:00:00,
2013-07-02 06:52:00,61.0,59.0,-100.00,ESE,123,0.0,-999.0,95,-99.99,,,-99.99,1.060000,,2013-07-02 11:52:00,
2013-07-02 07:00:00,63.0,61.0,-100.00,SE,133,0.0,-999.0,94,-99.99,,,-99.99,44.810001,,2013-07-02 12:00:00,
2013-07-02 08:00:00,69.0,65.0,-100.00,WSW,244,1.0,-999.0,87,-99.99,,,-99.99,184.300003,,2013-07-02 13:00:00,
2013-07-02 09:00:00,73.0,61.0,-100.00,West,272,1.0,-999.0,65,-99.99,,,-99.99,355.299988,,2013-07-02 14:00:00,
2013-07-02 10:00:00,75.0,61.0,-100.00,WNW,294,2.0,-999.0,62,-99.99,,,-99.99,533.900024,,2013-07-02 15:00:00,
2013-07-02 11:00:00,79.0,61.0,-100.00,West,277,3.0,-999.0,55,-99.99,,,-99.99,693.200012,,2013-07-02 16:00:00,
2013-07-02 12:00:00,80.0,60.0,-100.00,West,276,4.0,-999.0,50,-99.99,,,-99.99,785.000000,,2013-07-02 17:00:00,
2013-07-02 13:00:00,81.0,59.0,-100.00,West,281,4.0,-999.0,47,-99.99,,,-99.99,788.000000,,2013-07-02 18:00:00,
2013-07-02 14:00:00,82.0,61.0,-100.00,West,275,5.0,-999.0,49,-99.99,,,-99.99,879.000000,,2013-07-02 19:00:00,
2013-07-02 15:00:00,83.0,59.0,-100.00,West,271,4.0,-999.0,44,-99.99,,,-99.99,756.000000,,2013-07-02 20:00:00,
2013-07-02 16:00:00,83.0,58.0,-100.00,West,265,4.0,-999.0,43,-99.99,,,-99.99,731.000000,,2013-07-02 21:00:00,
2013-07-02 17:00:00,82.0,60.0,-100.00,WNW,293,3.0,-999.0,46,-99.99,,,-99.99,594.700012,,2013-07-02 22:00:00,
2013-07-02 17:53:00,82.0,60.0,-100.00,WNW,293,3.0,-999.0,46,-99.99,,,-99.99,594.700012,,2013-07-02 22:53:00,
2013-07-02 18:00:00,83.0,62.0,-100.00,WNW,289,2.0,-999.0,48,-99.99,,,-99.99,413.299988,,2013-07-02 23:00:00,
2013-07-02 18:52:00,83.0,62.0,-100.00,WNW,289,2.0,-999.0,48,-99.99,,,-99.99,413.299988,,2013-07-02 23:52:00,
2013-07-02 19:00:00,82.0,64.0,-100.00,NW,305,1.0,-999.0,54,-99.99,,,-99.99,226.800003,,2013-07-03 00:00:00,
2013-07-02 20:00:00,76.0,68.0,-100.00,WSW,253,0.0,-999.0,78,-99.99,,,-99.99,57.570000,,2013-07-03 01:00:00,
2013-07-02 20:59:00,76.0,68.0,-100.00,WSW,253,0.0,-999.0,78,-99.99,,,-99.99,57.570000,,2013-07-03 01:59:00,
2013-07-02 21:00:00,70.0,65.0,-100.00,SW,236,0.0,-999.0,84,-99.99,,,-99.99,1.850000,,2013-07-03 02:00:00,
2013-07-02 21:59:00,70.0,65.0,-100.00,SW,236,0.0,-999.0,84,-99.99,,,-99.99,1.850000,,2013-07-03 02:59:00,
2013-07-02 22:00:00,68.0,64.0,-100.00,NW,314,0.0,-999.0,86,-99.99,,,-99.99,0.000000,,2013-07-03 03:00:00,
2013-07-02 23:00:00,67.0,64.0,-100.00,NNE,31,0.0,-999.0,89,-99.99,,,-99.99,0.000000,,2013-07-03 04:00:00,
2013-07-02 23:52:00,67.0,64.0,-100.00,NNE,31,0.0,-999.0,89,-99.99,,,-99.99,0.000000,,2013-07-03 04:52:00,